sensor_id;sensor_type;location;lat;lon;timestamp;pressure;altitude;pressure_sealevel;temperature;humidity
50302;BME280;36550;50.472;19.744;2023-12-20T00:02:29;97484.23;;;7.45;56.44
50302;BME280;36550;50.472;19.744;2023-12-20T00:05:14;97483.00;;;7.43;56.41
50302;BME280;36550;50.472;19.744;2023-12-20T00:07:58;97483.34;;;7.42;56.30
50302;BME280;36550;50.472;19.744;2023-12-20T00:10:43;97479.01;;;7.39;56.69
50302;BME280;36550;50.472;19.744;2023-12-20T00:13:27;97473.48;;;7.36;57.31
50302;BME280;36550;50.472;19.744;2023-12-20T00:16:12;97476.82;;;7.30;57.81
50302;BME280;36550;50.472;19.744;2023-12-20T00:18:56;97472.73;;;7.25;58.15
50302;BME280;36550;50.472;19.744;2023-12-20T00:21:42;97462.95;;;7.20;58.76
50302;BME280;36550;50.472;19.744;2023-12-20T00:24:26;97456.47;;;7.12;59.19
50302;BME280;36550;50.472;19.744;2023-12-20T00:27:10;97458.20;;;7.06;59.69
50302;BME280;36550;50.472;19.744;2023-12-20T00:29:54;97453.55;;;7.02;59.99
50302;BME280;36550;50.472;19.744;2023-12-20T00:32:39;97453.29;;;6.98;60.28
50302;BME280;36550;50.472;19.744;2023-12-20T00:35:23;97463.39;;;6.94;60.37
50302;BME280;36550;50.472;19.744;2023-12-20T00:38:07;97454.39;;;6.89;60.90
50302;BME280;36550;50.472;19.744;2023-12-20T00:40:52;97451.89;;;6.84;61.20
50302;BME280;36550;50.472;19.744;2023-12-20T00:43:36;97448.36;;;6.81;61.33
50302;BME280;36550;50.472;19.744;2023-12-20T00:46:20;97446.04;;;6.78;61.54
50302;BME280;36550;50.472;19.744;2023-12-20T00:49:05;97460.91;;;6.73;61.61
50302;BME280;36550;50.472;19.744;2023-12-20T00:51:49;97469.73;;;6.72;61.89
50302;BME280;36550;50.472;19.744;2023-12-20T00:54:34;97462.05;;;6.69;62.39
50302;BME280;36550;50.472;19.744;2023-12-20T00:57:19;97453.24;;;6.68;62.32
50302;BME280;36550;50.472;19.744;2023-12-20T01:00:04;97453.64;;;6.66;62.59
50302;BME280;36550;50.472;19.744;2023-12-20T01:02:48;97453.02;;;6.65;62.82
50302;BME280;36550;50.472;19.744;2023-12-20T01:05:34;97452.71;;;6.63;62.97
50302;BME280;36550;50.472;19.744;2023-12-20T01:08:18;97461.42;;;6.63;63.26
50302;BME280;36550;50.472;19.744;2023-12-20T01:11:05;97451.69;;;6.62;63.46
50302;BME280;36550;50.472;19.744;2023-12-20T01:13:50;97444.14;;;6.60;63.37
50302;BME280;36550;50.472;19.744;2023-12-20T01:16:34;97442.09;;;6.60;63.36
50302;BME280;36550;50.472;19.744;2023-12-20T01:19:18;97443.84;;;6.58;63.55
50302;BME280;36550;50.472;19.744;2023-12-20T01:22:02;97438.30;;;6.56;63.70
50302;BME280;36550;50.472;19.744;2023-12-20T01:24:47;97431.69;;;6.52;63.92
50302;BME280;36550;50.472;19.744;2023-12-20T01:27:31;97425.02;;;6.48;64.05
50302;BME280;36550;50.472;19.744;2023-12-20T01:30:15;97394.11;;;6.44;64.03
50302;BME280;36550;50.472;19.744;2023-12-20T01:33:00;97383.16;;;6.42;63.94
50302;BME280;36550;50.472;19.744;2023-12-20T01:35:45;97391.52;;;6.41;63.85
50302;BME280;36550;50.472;19.744;2023-12-20T01:38:29;97396.54;;;6.39;63.90
50302;BME280;36550;50.472;19.744;2023-12-20T01:41:13;97385.62;;;6.38;64.15
50302;BME280;36550;50.472;19.744;2023-12-20T01:43:57;97377.59;;;6.35;64.05
50302;BME280;36550;50.472;19.744;2023-12-20T01:46:41;97354.88;;;6.34;64.05
50302;BME280;36550;50.472;19.744;2023-12-20T01:49:26;97357.92;;;6.32;64.06
50302;BME280;36550;50.472;19.744;2023-12-20T01:52:10;97361.86;;;6.31;64.08
50302;BME280;36550;50.472;19.744;2023-12-20T01:54:54;97379.89;;;6.32;64.12
50302;BME280;36550;50.472;19.744;2023-12-20T01:57:45;97372.60;;;6.32;64.31
50302;BME280;36550;50.472;19.744;2023-12-20T02:00:30;97359.16;;;6.32;64.27
50302;BME280;36550;50.472;19.744;2023-12-20T02:03:16;97350.89;;;6.33;64.28
50302;BME280;36550;50.472;19.744;2023-12-20T02:06:00;97368.52;;;6.33;64.19
50302;BME280;36550;50.472;19.744;2023-12-20T02:08:44;97381.94;;;6.34;64.16
50302;BME280;36550;50.472;19.744;2023-12-20T02:11:29;97373.95;;;6.36;64.13
50302;BME280;36550;50.472;19.744;2023-12-20T02:14:13;97367.64;;;6.36;64.05
50302;BME280;36550;50.472;19.744;2023-12-20T02:16:57;97370.68;;;6.37;63.98
50302;BME280;36550;50.472;19.744;2023-12-20T02:19:43;97377.41;;;6.37;63.86
50302;BME280;36550;50.472;19.744;2023-12-20T02:22:27;97376.13;;;6.38;63.55
50302;BME280;36550;50.472;19.744;2023-12-20T02:25:11;97373.54;;;6.39;63.20
50302;BME280;36550;50.472;19.744;2023-12-20T02:27:55;97368.60;;;6.39;63.17
50302;BME280;36550;50.472;19.744;2023-12-20T02:30:39;97354.34;;;6.40;62.66
50302;BME280;36550;50.472;19.744;2023-12-20T02:33:23;97334.16;;;6.42;62.78
50302;BME280;36550;50.472;19.744;2023-12-20T02:36:07;97331.02;;;6.43;62.68
50302;BME280;36550;50.472;19.744;2023-12-20T02:38:52;97329.39;;;6.45;62.20
50302;BME280;36550;50.472;19.744;2023-12-20T02:41:36;97340.09;;;6.45;61.79
50302;BME280;36550;50.472;19.744;2023-12-20T02:44:20;97338.37;;;6.45;61.77
50302;BME280;36550;50.472;19.744;2023-12-20T02:47:04;97344.41;;;6.45;61.55
50302;BME280;36550;50.472;19.744;2023-12-20T02:49:49;97348.83;;;6.45;61.73
50302;BME280;36550;50.472;19.744;2023-12-20T02:52:33;97347.64;;;6.45;61.54
50302;BME280;36550;50.472;19.744;2023-12-20T02:55:17;97336.37;;;6.45;61.31
50302;BME280;36550;50.472;19.744;2023-12-20T02:58:01;97355.15;;;6.43;61.20
50302;BME280;36550;50.472;19.744;2023-12-20T03:00:45;97352.48;;;6.43;61.12
50302;BME280;36550;50.472;19.744;2023-12-20T03:03:29;97345.33;;;6.43;61.22
50302;BME280;36550;50.472;19.744;2023-12-20T03:06:17;97346.72;;;6.42;61.33
50302;BME280;36550;50.472;19.744;2023-12-20T03:09:02;97347.65;;;6.41;61.25
50302;BME280;36550;50.472;19.744;2023-12-20T03:11:46;97345.45;;;6.41;61.08
50302;BME280;36550;50.472;19.744;2023-12-20T03:14:31;97341.35;;;6.42;60.88
50302;BME280;36550;50.472;19.744;2023-12-20T03:17:15;97338.49;;;6.42;61.01
50302;BME280;36550;50.472;19.744;2023-12-20T03:19:59;97331.09;;;6.42;61.20
50302;BME280;36550;50.472;19.744;2023-12-20T03:22:43;97322.84;;;6.42;61.35
50302;BME280;36550;50.472;19.744;2023-12-20T03:25:27;97325.71;;;6.41;61.49
50302;BME280;36550;50.472;19.744;2023-12-20T03:28:14;97326.27;;;6.41;61.46
50302;BME280;36550;50.472;19.744;2023-12-20T03:30:59;97324.41;;;6.40;61.74
50302;BME280;36550;50.472;19.744;2023-12-20T03:33:43;97322.89;;;6.37;61.96
50302;BME280;36550;50.472;19.744;2023-12-20T03:36:27;97328.07;;;6.33;62.11
50302;BME280;36550;50.472;19.744;2023-12-20T03:39:11;97333.36;;;6.28;62.12
50302;BME280;36550;50.472;19.744;2023-12-20T03:41:55;97332.77;;;6.21;62.26
50302;BME280;36550;50.472;19.744;2023-12-20T03:44:39;97323.72;;;6.15;62.29
50302;BME280;36550;50.472;19.744;2023-12-20T03:47:24;97322.77;;;6.09;62.55
50302;BME280;36550;50.472;19.744;2023-12-20T03:50:08;97324.26;;;6.04;62.78
50302;BME280;36550;50.472;19.744;2023-12-20T03:52:53;97321.67;;;5.98;63.06
50302;BME280;36550;50.472;19.744;2023-12-20T03:55:37;97325.13;;;5.93;63.38
50302;BME280;36550;50.472;19.744;2023-12-20T03:58:21;97331.70;;;5.89;63.58
50302;BME280;36550;50.472;19.744;2023-12-20T04:01:09;97329.01;;;5.83;63.99
50302;BME280;36550;50.472;19.744;2023-12-20T04:03:55;97326.73;;;5.77;64.43
50302;BME280;36550;50.472;19.744;2023-12-20T04:06:40;97326.24;;;5.71;65.10
50302;BME280;36550;50.472;19.744;2023-12-20T04:09:24;97331.23;;;5.63;65.34
50302;BME280;36550;50.472;19.744;2023-12-20T04:12:08;97334.35;;;5.56;65.60
50302;BME280;36550;50.472;19.744;2023-12-20T04:14:52;97334.67;;;5.53;65.88
50302;BME280;36550;50.472;19.744;2023-12-20T04:17:36;97340.72;;;5.50;66.26
50302;BME280;36550;50.472;19.744;2023-12-20T04:20:20;97340.85;;;5.45;66.89
50302;BME280;36550;50.472;19.744;2023-12-20T04:23:04;97335.20;;;5.38;67.24
50302;BME280;36550;50.472;19.744;2023-12-20T04:25:49;97332.02;;;5.33;67.19
50302;BME280;36550;50.472;19.744;2023-12-20T04:28:33;97327.64;;;5.27;67.63
50302;BME280;36550;50.472;19.744;2023-12-20T04:31:17;97326.10;;;5.20;68.04
50302;BME280;36550;50.472;19.744;2023-12-20T04:34:01;97330.58;;;5.15;68.55
50302;BME280;36550;50.472;19.744;2023-12-20T04:36:46;97335.92;;;5.11;68.63
50302;BME280;36550;50.472;19.744;2023-12-20T04:39:30;97336.27;;;5.07;68.96
50302;BME280;36550;50.472;19.744;2023-12-20T04:42:14;97341.49;;;5.02;69.24
50302;BME280;36550;50.472;19.744;2023-12-20T04:44:59;97337.13;;;4.99;69.27
50302;BME280;36550;50.472;19.744;2023-12-20T04:47:43;97336.05;;;4.94;69.92
50302;BME280;36550;50.472;19.744;2023-12-20T04:50:27;97338.22;;;4.88;70.10
50302;BME280;36550;50.472;19.744;2023-12-20T04:53:11;97335.23;;;4.84;70.35
50302;BME280;36550;50.472;19.744;2023-12-20T04:55:55;97338.77;;;4.82;70.58
50302;BME280;36550;50.472;19.744;2023-12-20T04:58:39;97338.07;;;4.78;70.75
50302;BME280;36550;50.472;19.744;2023-12-20T05:01:23;97343.98;;;4.74;71.37
50302;BME280;36550;50.472;19.744;2023-12-20T05:04:08;97338.82;;;4.70;71.41
50302;BME280;36550;50.472;19.744;2023-12-20T05:06:52;97341.08;;;4.68;71.45
50302;BME280;36550;50.472;19.744;2023-12-20T05:09:36;97339.01;;;4.67;71.99
50302;BME280;36550;50.472;19.744;2023-12-20T05:12:21;97332.95;;;4.64;72.26
50302;BME280;36550;50.472;19.744;2023-12-20T05:15:06;97334.82;;;4.60;72.94
50302;BME280;36550;50.472;19.744;2023-12-20T05:17:51;97333.85;;;4.56;72.71
50302;BME280;36550;50.472;19.744;2023-12-20T05:20:35;97325.56;;;4.53;72.85
50302;BME280;36550;50.472;19.744;2023-12-20T05:23:19;97324.95;;;4.50;72.88
50302;BME280;36550;50.472;19.744;2023-12-20T05:26:04;97324.46;;;4.48;73.34
50302;BME280;36550;50.472;19.744;2023-12-20T05:28:48;97324.14;;;4.48;73.08
50302;BME280;36550;50.472;19.744;2023-12-20T05:31:32;97324.52;;;4.49;73.41
50302;BME280;36550;50.472;19.744;2023-12-20T05:34:16;97319.23;;;4.49;73.71
50302;BME280;36550;50.472;19.744;2023-12-20T05:37:00;97315.39;;;4.49;73.99
50302;BME280;36550;50.472;19.744;2023-12-20T05:39:45;97312.39;;;4.50;74.48
50302;BME280;36550;50.472;19.744;2023-12-20T05:42:29;97303.52;;;4.46;74.75
50302;BME280;36550;50.472;19.744;2023-12-20T05:45:14;97301.70;;;4.43;74.61
50302;BME280;36550;50.472;19.744;2023-12-20T05:47:59;97300.38;;;4.42;74.91
50302;BME280;36550;50.472;19.744;2023-12-20T05:50:43;97302.86;;;4.42;75.61
50302;BME280;36550;50.472;19.744;2023-12-20T05:53:27;97305.31;;;4.40;75.42
50302;BME280;36550;50.472;19.744;2023-12-20T05:56:11;97306.88;;;4.39;75.79
50302;BME280;36550;50.472;19.744;2023-12-20T05:58:56;97316.00;;;4.37;75.64
50302;BME280;36550;50.472;19.744;2023-12-20T06:01:40;97320.43;;;4.39;75.82
50302;BME280;36550;50.472;19.744;2023-12-20T06:04:24;97311.78;;;4.41;75.76
50302;BME280;36550;50.472;19.744;2023-12-20T06:07:08;97315.07;;;4.45;76.35
50302;BME280;36550;50.472;19.744;2023-12-20T06:09:52;97309.54;;;4.47;76.67
50302;BME280;36550;50.472;19.744;2023-12-20T06:12:37;97306.77;;;4.48;77.19
50302;BME280;36550;50.472;19.744;2023-12-20T06:15:21;97305.42;;;4.46;77.08
50302;BME280;36550;50.472;19.744;2023-12-20T06:18:06;97300.79;;;4.46;77.06
50302;BME280;36550;50.472;19.744;2023-12-20T06:20:50;97299.84;;;4.45;77.34
50302;BME280;36550;50.472;19.744;2023-12-20T06:23:35;97300.17;;;4.44;78.54
50302;BME280;36550;50.472;19.744;2023-12-20T06:26:19;97303.07;;;4.42;78.07
50302;BME280;36550;50.472;19.744;2023-12-20T06:29:03;97312.80;;;4.38;78.14
50302;BME280;36550;50.472;19.744;2023-12-20T06:31:48;97312.83;;;4.35;78.65
50302;BME280;36550;50.472;19.744;2023-12-20T06:34:32;97315.04;;;4.32;79.98
50302;BME280;36550;50.472;19.744;2023-12-20T06:37:16;97316.08;;;4.28;79.61
50302;BME280;36550;50.472;19.744;2023-12-20T06:40:01;97322.48;;;4.25;79.42
50302;BME280;36550;50.472;19.744;2023-12-20T06:42:46;97324.00;;;4.20;80.16
50302;BME280;36550;50.472;19.744;2023-12-20T06:45:30;97329.23;;;4.15;80.16
50302;BME280;36550;50.472;19.744;2023-12-20T06:48:14;97329.65;;;4.11;80.98
50302;BME280;36550;50.472;19.744;2023-12-20T06:51:00;97330.47;;;4.08;80.46
50302;BME280;36550;50.472;19.744;2023-12-20T06:53:45;97331.36;;;4.04;81.24
50302;BME280;36550;50.472;19.744;2023-12-20T06:56:29;97330.74;;;4.01;81.64
50302;BME280;36550;50.472;19.744;2023-12-20T06:59:14;97331.05;;;3.98;81.57
50302;BME280;36550;50.472;19.744;2023-12-20T07:01:59;97331.39;;;3.94;81.97
50302;BME280;36550;50.472;19.744;2023-12-20T07:04:43;97330.75;;;3.87;82.87
50302;BME280;36550;50.472;19.744;2023-12-20T07:07:27;97336.44;;;3.84;83.02
50302;BME280;36550;50.472;19.744;2023-12-20T07:10:11;97334.21;;;3.81;82.92
50302;BME280;36550;50.472;19.744;2023-12-20T07:12:55;97328.20;;;3.79;82.48
50302;BME280;36550;50.472;19.744;2023-12-20T07:15:40;97327.04;;;3.77;83.08
50302;BME280;36550;50.472;19.744;2023-12-20T07:18:24;97332.35;;;3.75;82.82
50302;BME280;36550;50.472;19.744;2023-12-20T07:21:08;97336.69;;;3.74;82.48
50302;BME280;36550;50.472;19.744;2023-12-20T07:23:52;97341.79;;;3.75;82.88
50302;BME280;36550;50.472;19.744;2023-12-20T07:26:37;97343.58;;;3.77;82.68
50302;BME280;36550;50.472;19.744;2023-12-20T07:29:22;97346.56;;;3.78;82.70
50302;BME280;36550;50.472;19.744;2023-12-20T07:32:07;97348.41;;;3.77;82.67
50302;BME280;36550;50.472;19.744;2023-12-20T07:34:52;97347.44;;;3.78;83.33
50302;BME280;36550;50.472;19.744;2023-12-20T07:37:37;97346.77;;;3.78;83.05
50302;BME280;36550;50.472;19.744;2023-12-20T07:40:21;97344.45;;;3.79;83.33
50302;BME280;36550;50.472;19.744;2023-12-20T07:43:07;97346.45;;;3.81;83.39
50302;BME280;36550;50.472;19.744;2023-12-20T07:45:52;97343.23;;;3.82;83.58
50302;BME280;36550;50.472;19.744;2023-12-20T07:48:36;97339.63;;;3.83;84.07
50302;BME280;36550;50.472;19.744;2023-12-20T07:51:21;97337.84;;;3.81;83.79
50302;BME280;36550;50.472;19.744;2023-12-20T07:54:05;97337.31;;;3.82;83.58
50302;BME280;36550;50.472;19.744;2023-12-20T07:56:49;97332.96;;;3.82;83.83
50302;BME280;36550;50.472;19.744;2023-12-20T07:59:33;97335.91;;;3.82;83.61
50302;BME280;36550;50.472;19.744;2023-12-20T08:02:18;97343.70;;;3.83;83.98
50302;BME280;36550;50.472;19.744;2023-12-20T08:05:02;97343.92;;;3.84;83.90
50302;BME280;36550;50.472;19.744;2023-12-20T08:07:46;97347.37;;;3.82;84.39
50302;BME280;36550;50.472;19.744;2023-12-20T08:10:30;97347.08;;;3.79;84.27
50302;BME280;36550;50.472;19.744;2023-12-20T08:13:15;97344.45;;;3.79;84.33
50302;BME280;36550;50.472;19.744;2023-12-20T08:15:59;97340.36;;;3.80;84.34
50302;BME280;36550;50.472;19.744;2023-12-20T08:18:44;97337.93;;;3.79;83.92
50302;BME280;36550;50.472;19.744;2023-12-20T08:21:28;97338.17;;;3.80;84.12
50302;BME280;36550;50.472;19.744;2023-12-20T08:24:12;97337.57;;;3.80;84.41
50302;BME280;36550;50.472;19.744;2023-12-20T08:26:56;97336.88;;;3.84;84.45
50302;BME280;36550;50.472;19.744;2023-12-20T08:29:43;97330.74;;;3.87;84.43
50302;BME280;36550;50.472;19.744;2023-12-20T08:32:28;97337.69;;;3.88;84.15
50302;BME280;36550;50.472;19.744;2023-12-20T08:35:12;97337.09;;;3.88;84.10
50302;BME280;36550;50.472;19.744;2023-12-20T08:37:56;97335.89;;;3.88;84.16
50302;BME280;36550;50.472;19.744;2023-12-20T08:40:41;97336.77;;;3.91;84.43
50302;BME280;36550;50.472;19.744;2023-12-20T08:43:25;97338.89;;;3.95;85.04
50302;BME280;36550;50.472;19.744;2023-12-20T08:46:09;97341.60;;;3.95;84.85
50302;BME280;36550;50.472;19.744;2023-12-20T08:48:54;97340.27;;;3.97;84.65
50302;BME280;36550;50.472;19.744;2023-12-20T08:51:38;97342.09;;;4.00;85.09
50302;BME280;36550;50.472;19.744;2023-12-20T08:54:24;97343.89;;;4.03;85.03
50302;BME280;36550;50.472;19.744;2023-12-20T08:57:08;97337.11;;;4.05;85.18
50302;BME280;36550;50.472;19.744;2023-12-20T08:59:53;97338.26;;;4.07;85.12
50302;BME280;36550;50.472;19.744;2023-12-20T09:02:37;97338.04;;;4.10;85.24
50302;BME280;36550;50.472;19.744;2023-12-20T09:05:21;97338.00;;;4.12;85.48
50302;BME280;36550;50.472;19.744;2023-12-20T09:08:06;97335.42;;;4.13;85.73
50302;BME280;36550;50.472;19.744;2023-12-20T09:10:51;97337.77;;;4.13;85.13
50302;BME280;36550;50.472;19.744;2023-12-20T09:13:36;97339.22;;;4.17;85.22
50302;BME280;36550;50.472;19.744;2023-12-20T09:16:20;97339.39;;;4.19;85.25
50302;BME280;36550;50.472;19.744;2023-12-20T09:19:04;97341.94;;;4.19;85.53
50302;BME280;36550;50.472;19.744;2023-12-20T09:21:49;97341.61;;;4.21;85.10
50302;BME280;36550;50.472;19.744;2023-12-20T09:24:34;97344.36;;;4.23;85.61
50302;BME280;36550;50.472;19.744;2023-12-20T09:27:18;97345.16;;;4.22;85.51
50302;BME280;36550;50.472;19.744;2023-12-20T09:30:02;97343.33;;;4.22;85.82
50302;BME280;36550;50.472;19.744;2023-12-20T09:32:48;97341.20;;;4.24;85.82
50302;BME280;36550;50.472;19.744;2023-12-20T09:35:32;97337.58;;;4.26;85.69
50302;BME280;36550;50.472;19.744;2023-12-20T09:38:16;97332.55;;;4.33;85.81
50302;BME280;36550;50.472;19.744;2023-12-20T09:41:01;97326.55;;;4.32;85.99
50302;BME280;36550;50.472;19.744;2023-12-20T09:43:49;97323.84;;;4.32;85.43
50302;BME280;36550;50.472;19.744;2023-12-20T09:46:34;97319.77;;;4.36;85.78
50302;BME280;36550;50.472;19.744;2023-12-20T09:49:25;97315.27;;;4.39;86.05
50302;BME280;36550;50.472;19.744;2023-12-20T09:52:13;97305.88;;;4.40;85.85
50302;BME280;36550;50.472;19.744;2023-12-20T09:54:57;97303.89;;;4.43;85.73
50302;BME280;36550;50.472;19.744;2023-12-20T09:57:42;97300.59;;;4.46;85.55
50302;BME280;36550;50.472;19.744;2023-12-20T10:00:27;97296.86;;;4.48;85.63
50302;BME280;36550;50.472;19.744;2023-12-20T10:03:13;97296.18;;;4.48;85.61
50302;BME280;36550;50.472;19.744;2023-12-20T10:05:58;97297.60;;;4.52;85.97
50302;BME280;36550;50.472;19.744;2023-12-20T10:08:44;97303.77;;;4.54;85.93
50302;BME280;36550;50.472;19.744;2023-12-20T10:11:28;97299.86;;;4.53;85.60
50302;BME280;36550;50.472;19.744;2023-12-20T10:14:13;97303.41;;;4.52;85.41
50302;BME280;36550;50.472;19.744;2023-12-20T10:17:05;97300.17;;;4.53;85.32
50302;BME280;36550;50.472;19.744;2023-12-20T10:19:50;97298.24;;;4.54;85.35
50302;BME280;36550;50.472;19.744;2023-12-20T10:22:34;97295.68;;;4.55;85.51
50302;BME280;36550;50.472;19.744;2023-12-20T10:25:20;97294.14;;;4.53;85.32
50302;BME280;36550;50.472;19.744;2023-12-20T10:28:15;97290.50;;;4.54;85.72
50302;BME280;36550;50.472;19.744;2023-12-20T10:31:04;97289.37;;;4.51;85.55
50302;BME280;36550;50.472;19.744;2023-12-20T10:33:49;97287.11;;;4.52;85.52
50302;BME280;36550;50.472;19.744;2023-12-20T10:36:34;97286.38;;;4.55;85.92
50302;BME280;36550;50.472;19.744;2023-12-20T10:39:20;97285.80;;;4.50;85.79
50302;BME280;36550;50.472;19.744;2023-12-20T10:42:06;97287.16;;;4.52;85.80
50302;BME280;36550;50.472;19.744;2023-12-20T10:44:50;97285.70;;;4.55;86.06
50302;BME280;36550;50.472;19.744;2023-12-20T10:47:36;97282.39;;;4.52;85.92
50302;BME280;36550;50.472;19.744;2023-12-20T10:50:21;97281.75;;;4.53;85.97
50302;BME280;36550;50.472;19.744;2023-12-20T10:53:06;97279.83;;;4.53;86.25
50302;BME280;36550;50.472;19.744;2023-12-20T10:55:52;97276.58;;;4.51;85.90
50302;BME280;36550;50.472;19.744;2023-12-20T10:58:41;97274.29;;;4.51;86.07
50302;BME280;36550;50.472;19.744;2023-12-20T11:01:28;97275.69;;;4.51;86.11
50302;BME280;36550;50.472;19.744;2023-12-20T11:04:17;97278.36;;;4.52;86.06
50302;BME280;36550;50.472;19.744;2023-12-20T11:07:23;97281.48;;;4.53;86.14
50302;BME280;36550;50.472;19.744;2023-12-20T11:10:19;97277.27;;;4.54;86.29
50302;BME280;36550;50.472;19.744;2023-12-20T11:13:12;97278.17;;;4.54;86.26
50302;BME280;36550;50.472;19.744;2023-12-20T11:16:00;97272.64;;;4.53;86.26
50302;BME280;36550;50.472;19.744;2023-12-20T11:18:45;97275.41;;;4.55;86.50
50302;BME280;36550;50.472;19.744;2023-12-20T11:21:29;97273.85;;;4.55;86.26
50302;BME280;36550;50.472;19.744;2023-12-20T11:24:16;97271.30;;;4.60;86.15
50302;BME280;36550;50.472;19.744;2023-12-20T11:27:01;97271.34;;;4.63;86.10
50302;BME280;36550;50.472;19.744;2023-12-20T11:29:53;97266.48;;;4.66;86.18
50302;BME280;36550;50.472;19.744;2023-12-20T11:32:39;97267.64;;;4.66;85.96
50302;BME280;36550;50.472;19.744;2023-12-20T11:35:24;97268.29;;;4.69;85.99
50302;BME280;36550;50.472;19.744;2023-12-20T11:38:09;97267.23;;;4.65;86.03
50302;BME280;36550;50.472;19.744;2023-12-20T11:40:54;97264.02;;;4.64;86.07
50302;BME280;36550;50.472;19.744;2023-12-20T11:43:39;97260.96;;;4.66;86.00
50302;BME280;36550;50.472;19.744;2023-12-20T11:46:25;97262.11;;;4.69;85.93
50302;BME280;36550;50.472;19.744;2023-12-20T11:49:09;97260.75;;;4.76;86.05
50302;BME280;36550;50.472;19.744;2023-12-20T11:51:53;97254.80;;;4.80;86.12
50302;BME280;36550;50.472;19.744;2023-12-20T11:54:37;97252.64;;;4.83;86.10
50302;BME280;36550;50.472;19.744;2023-12-20T11:57:21;97258.80;;;4.84;86.05
50302;BME280;36550;50.472;19.744;2023-12-20T12:00:06;97255.20;;;4.87;86.02
50302;BME280;36550;50.472;19.744;2023-12-20T12:02:58;97250.27;;;4.88;86.01
50302;BME280;36550;50.472;19.744;2023-12-20T12:05:42;97245.14;;;4.86;86.08
50302;BME280;36550;50.472;19.744;2023-12-20T12:08:26;97244.07;;;4.87;86.03
50302;BME280;36550;50.472;19.744;2023-12-20T12:11:10;97236.41;;;4.89;86.10
50302;BME280;36550;50.472;19.744;2023-12-20T12:13:55;97235.27;;;4.91;86.05
50302;BME280;36550;50.472;19.744;2023-12-20T12:16:41;97230.67;;;4.93;86.10
50302;BME280;36550;50.472;19.744;2023-12-20T12:19:26;97232.36;;;4.98;86.30
50302;BME280;36550;50.472;19.744;2023-12-20T12:22:15;97234.94;;;4.97;86.39
50302;BME280;36550;50.472;19.744;2023-12-20T12:25:09;97235.55;;;4.95;86.38
50302;BME280;36550;50.472;19.744;2023-12-20T12:27:56;97237.04;;;4.94;86.44
50302;BME280;36550;50.472;19.744;2023-12-20T12:30:40;97235.46;;;4.95;86.62
50302;BME280;36550;50.472;19.744;2023-12-20T12:33:25;97233.91;;;4.96;86.68
50302;BME280;36550;50.472;19.744;2023-12-20T12:36:10;97236.27;;;4.95;86.42
50302;BME280;36550;50.472;19.744;2023-12-20T12:38:57;97237.61;;;4.98;86.58
50302;BME280;36550;50.472;19.744;2023-12-20T12:41:42;97239.21;;;4.97;86.46
50302;BME280;36550;50.472;19.744;2023-12-20T12:44:26;97242.86;;;5.00;86.57
50302;BME280;36550;50.472;19.744;2023-12-20T12:47:10;97241.40;;;4.98;86.70
50302;BME280;36550;50.472;19.744;2023-12-20T12:49:54;97243.66;;;4.96;86.78
50302;BME280;36550;50.472;19.744;2023-12-20T12:52:38;97242.50;;;4.92;86.88
50302;BME280;36550;50.472;19.744;2023-12-20T12:55:23;97238.75;;;4.87;86.78
50302;BME280;36550;50.472;19.744;2023-12-20T12:58:07;97239.59;;;4.85;86.74
50302;BME280;36550;50.472;19.744;2023-12-20T13:00:51;97240.74;;;4.85;86.90
50302;BME280;36550;50.472;19.744;2023-12-20T13:03:36;97249.42;;;4.85;86.93
50302;BME280;36550;50.472;19.744;2023-12-20T13:06:20;97253.53;;;4.83;86.92
50302;BME280;36550;50.472;19.744;2023-12-20T13:09:05;97254.84;;;4.80;86.80
50302;BME280;36550;50.472;19.744;2023-12-20T13:11:50;97259.16;;;4.78;86.75
50302;BME280;36550;50.472;19.744;2023-12-20T13:14:35;97264.29;;;4.78;86.61
50302;BME280;36550;50.472;19.744;2023-12-20T13:17:21;97266.80;;;4.78;86.66
50302;BME280;36550;50.472;19.744;2023-12-20T13:20:06;97267.15;;;4.79;86.80
50302;BME280;36550;50.472;19.744;2023-12-20T13:22:50;97266.70;;;4.80;86.61
50302;BME280;36550;50.472;19.744;2023-12-20T13:25:34;97271.63;;;4.85;86.59
50302;BME280;36550;50.472;19.744;2023-12-20T13:28:20;97278.91;;;4.88;86.63
50302;BME280;36550;50.472;19.744;2023-12-20T13:31:05;97282.89;;;4.90;86.64
50302;BME280;36550;50.472;19.744;2023-12-20T13:33:49;97284.40;;;4.90;86.37
50302;BME280;36550;50.472;19.744;2023-12-20T13:36:33;97282.43;;;4.93;86.38
50302;BME280;36550;50.472;19.744;2023-12-20T13:39:17;97284.33;;;4.93;86.25
50302;BME280;36550;50.472;19.744;2023-12-20T13:42:02;97279.98;;;4.92;86.04
50302;BME280;36550;50.472;19.744;2023-12-20T13:44:46;97278.16;;;4.90;85.83
50302;BME280;36550;50.472;19.744;2023-12-20T13:47:31;97272.13;;;4.87;85.72
50302;BME280;36550;50.472;19.744;2023-12-20T13:50:16;97270.71;;;4.80;85.65
50302;BME280;36550;50.472;19.744;2023-12-20T13:53:00;97275.91;;;4.70;85.34
50302;BME280;36550;50.472;19.744;2023-12-20T13:55:45;97277.66;;;4.63;85.28
50302;BME280;36550;50.472;19.744;2023-12-20T13:58:29;97270.89;;;4.52;84.98
50302;BME280;36550;50.472;19.744;2023-12-20T14:01:14;97267.27;;;4.44;84.92
50302;BME280;36550;50.472;19.744;2023-12-20T14:03:58;97270.86;;;4.35;84.94
50302;BME280;36550;50.472;19.744;2023-12-20T14:06:44;97272.77;;;4.27;84.96
50302;BME280;36550;50.472;19.744;2023-12-20T14:09:29;97274.02;;;4.16;85.05
50302;BME280;36550;50.472;19.744;2023-12-20T14:12:13;97277.73;;;4.08;85.26
50302;BME280;36550;50.472;19.744;2023-12-20T14:14:59;97288.56;;;4.02;85.47
50302;BME280;36550;50.472;19.744;2023-12-20T14:17:43;97286.54;;;3.99;85.70
50302;BME280;36550;50.472;19.744;2023-12-20T14:20:27;97281.52;;;3.98;86.00
50302;BME280;36550;50.472;19.744;2023-12-20T14:23:11;97274.94;;;3.97;86.20
50302;BME280;36550;50.472;19.744;2023-12-20T14:25:55;97267.77;;;3.95;86.56
50302;BME280;36550;50.472;19.744;2023-12-20T14:28:43;97268.50;;;3.92;86.45
50302;BME280;36550;50.472;19.744;2023-12-20T14:31:27;97265.94;;;3.88;86.47
50302;BME280;36550;50.472;19.744;2023-12-20T14:34:12;97266.51;;;3.84;86.80